createdAt,value
2023-03-12T00:01:18.355Z,5.30
2023-03-12T00:03:47.581Z,7.40
2023-03-12T00:06:16.709Z,5.30
2023-03-12T00:08:45.073Z,6.30
2023-03-12T00:11:18.315Z,7.30
2023-03-12T00:13:53.498Z,5.50
2023-03-12T00:16:22.514Z,6.80
2023-03-12T00:18:52.713Z,6.10
2023-03-12T00:21:22.453Z,7.60
2023-03-12T00:23:51.613Z,5.10
2023-03-12T00:26:20.974Z,5.90
2023-03-12T00:28:50.778Z,9.40
2023-03-12T00:31:27.320Z,6.70
2023-03-12T00:33:56.571Z,5.20
2023-03-12T00:36:27.043Z,6.60
2023-03-12T00:38:56.796Z,8.50
2023-03-12T00:41:25.792Z,7.50
2023-03-12T00:43:53.880Z,6.90
2023-03-12T00:46:22.252Z,6.20
2023-03-12T00:48:50.570Z,9.10
2023-03-12T00:51:19.371Z,6.90
2023-03-12T00:53:47.404Z,6.50
2023-03-12T00:56:15.575Z,7.30
2023-03-12T00:58:43.760Z,5.20
2023-03-12T01:01:12.550Z,6.10
2023-03-12T01:03:40.541Z,8.60
2023-03-12T01:06:09.485Z,11.10
2023-03-12T01:08:38.124Z,11.00
2023-03-12T01:11:06.149Z,14.20
2023-03-12T01:13:34.295Z,13.90
2023-03-12T01:16:02.391Z,13.50
2023-03-12T01:18:30.401Z,11.40
2023-03-12T01:20:59.520Z,9.50
2023-03-12T01:23:27.519Z,8.90
2023-03-12T01:25:56.600Z,13.60
2023-03-12T01:28:25.324Z,10.60
2023-03-12T01:30:53.592Z,11.40
2023-03-12T01:33:25.197Z,8.50
2023-03-12T01:35:53.374Z,11.50
2023-03-12T01:38:21.403Z,6.60
2023-03-12T01:40:49.284Z,5.80
2023-03-12T01:43:26.165Z,5.80
2023-03-12T01:46:03.365Z,6.00
2023-03-12T01:48:42.436Z,5.40
2023-03-12T01:51:13.642Z,7.70
2023-03-12T01:53:45.458Z,4.60
2023-03-12T01:56:15.683Z,5.70
2023-03-12T01:58:48.366Z,5.90
2023-03-12T02:01:19.026Z,4.50
2023-03-12T02:03:52.150Z,6.20
2023-03-12T02:06:31.099Z,5.80
2023-03-12T02:09:02.911Z,6.20
2023-03-12T02:11:31.623Z,5.70
2023-03-12T02:14:00.364Z,4.90
2023-03-12T02:16:28.601Z,6.30
2023-03-12T02:19:00.435Z,8.20
2023-03-12T02:21:33.762Z,7.00
2023-03-12T02:24:02.363Z,7.70
2023-03-12T02:26:31.544Z,6.00
2023-03-12T02:29:01.086Z,6.60
2023-03-12T02:31:35.508Z,6.60
2023-03-12T02:34:03.567Z,6.60
2023-03-12T02:36:31.484Z,5.40
2023-03-12T02:38:59.456Z,7.10
2023-03-12T02:41:37.707Z,5.90
2023-03-12T02:44:18.184Z,7.10
2023-03-12T02:46:50.123Z,6.70
2023-03-12T02:49:20.584Z,6.10
2023-03-12T02:51:51.480Z,5.70
2023-03-12T02:54:20.978Z,5.40
2023-03-12T02:56:51.200Z,5.00
2023-03-12T02:59:25.984Z,4.20
2023-03-12T03:01:57.044Z,4.30
2023-03-12T03:04:26.942Z,5.30
2023-03-12T03:06:55.422Z,4.40
2023-03-12T03:09:24.479Z,5.70
2023-03-12T03:11:52.820Z,8.00
2023-03-12T03:14:21.163Z,5.90
2023-03-12T03:16:51.706Z,5.80
2023-03-12T03:19:21.545Z,5.00
2023-03-12T03:21:49.464Z,5.80
2023-03-12T03:24:17.546Z,4.00
2023-03-12T03:26:45.497Z,5.60
2023-03-12T03:29:14.600Z,5.70
2023-03-12T03:31:43.152Z,4.20
2023-03-12T03:34:11.335Z,5.70
2023-03-12T03:36:39.242Z,3.50
2023-03-12T03:39:11.225Z,5.50
2023-03-12T03:41:39.185Z,5.30
2023-03-12T03:44:07.966Z,7.00
2023-03-12T03:46:36.980Z,4.40
2023-03-12T03:49:07.247Z,3.70
2023-03-12T03:51:35.505Z,3.80
2023-03-12T03:54:07.396Z,3.50
2023-03-12T03:56:35.586Z,4.90
2023-03-12T03:59:04.703Z,5.40
2023-03-12T04:01:33.908Z,3.40
2023-03-12T04:04:03.072Z,4.60
2023-03-12T04:06:32.087Z,3.30
2023-03-12T04:09:00.154Z,5.00
2023-03-12T04:17:51.622Z,5.10
2023-03-12T04:20:19.412Z,3.30
2023-03-12T04:22:46.291Z,4.40
2023-03-12T04:25:13.720Z,5.30
2023-03-12T04:27:40.444Z,3.90
2023-03-12T04:30:08.045Z,5.30
2023-03-12T04:32:34.927Z,4.20
2023-03-12T04:35:01.516Z,2.40
2023-03-12T04:37:31.883Z,3.70
2023-03-12T04:39:58.466Z,2.80
2023-03-12T04:42:25.849Z,4.10
2023-03-12T04:44:52.545Z,3.40
2023-03-12T04:47:19.691Z,2.60
2023-03-12T04:49:46.397Z,3.80
2023-03-12T04:52:13.012Z,3.10
2023-03-12T04:54:40.033Z,3.50
2023-03-12T04:57:06.843Z,2.90
2023-03-12T04:59:33.393Z,3.30
2023-03-12T05:02:00.182Z,3.70
2023-03-12T05:04:28.241Z,2.90
2023-03-12T05:06:55.112Z,4.70
2023-03-12T05:09:21.700Z,4.20
2023-03-12T05:11:48.253Z,2.60
2023-03-12T05:14:17.037Z,3.00
2023-03-12T05:16:44.029Z,2.70
2023-03-12T05:19:10.578Z,2.10
2023-03-12T05:21:40.494Z,3.30
2023-03-12T05:24:08.537Z,4.70
2023-03-12T05:26:35.558Z,2.60
2023-03-12T05:29:08.326Z,4.10
2023-03-12T05:31:35.906Z,4.50
2023-03-12T05:34:04.350Z,4.20
2023-03-12T05:36:31.481Z,5.40
2023-03-12T05:38:58.979Z,2.50
2023-03-12T05:41:28.958Z,5.00
2023-03-12T05:43:59.239Z,2.90
2023-03-12T05:46:27.478Z,1.80
2023-03-12T05:48:54.337Z,2.20
2023-03-12T05:51:21.285Z,3.80
2023-03-12T05:53:48.068Z,2.80
2023-03-12T05:56:16.925Z,3.10
2023-03-12T05:58:44.672Z,2.90
2023-03-12T06:01:18.595Z,2.00
2023-03-12T06:03:45.814Z,5.40
2023-03-12T06:06:12.657Z,3.20
2023-03-12T06:08:41.474Z,4.20
2023-03-12T06:11:09.469Z,4.40
2023-03-12T06:13:36.027Z,7.20
2023-03-12T06:16:07.832Z,4.80
2023-03-12T06:18:35.697Z,8.70
2023-03-12T06:21:08.935Z,6.50
2023-03-12T06:23:35.737Z,8.10
2023-03-12T06:26:02.475Z,6.80
2023-03-12T06:28:29.829Z,4.30
2023-03-12T06:30:56.539Z,3.30
2023-03-12T06:33:23.054Z,3.70
2023-03-12T06:35:54.191Z,4.10
2023-03-12T06:38:21.186Z,3.70
2023-03-12T06:40:57.928Z,4.00
2023-03-12T06:43:26.514Z,5.00
2023-03-12T06:45:54.879Z,6.70
2023-03-12T06:48:23.026Z,5.30
2023-03-12T06:50:50.837Z,5.30
2023-03-12T06:53:18.442Z,7.60
2023-03-12T06:55:45.537Z,5.40
2023-03-12T06:58:12.725Z,4.40
2023-03-12T07:00:39.521Z,5.30
2023-03-12T07:03:06.811Z,5.90
2023-03-12T07:05:33.637Z,5.30
2023-03-12T07:08:00.791Z,5.40
2023-03-12T07:10:28.839Z,5.60
2023-03-12T07:12:56.400Z,4.90
2023-03-12T07:15:23.435Z,5.60
2023-03-12T07:17:50.361Z,5.30
2023-03-12T07:20:17.633Z,7.50
2023-03-12T07:22:44.531Z,3.70
2023-03-12T07:25:11.700Z,6.90
2023-03-12T07:27:38.422Z,4.30
2023-03-12T07:30:05.974Z,3.90
2023-03-12T07:32:32.929Z,5.50
2023-03-12T07:35:00.039Z,4.00
2023-03-12T07:37:26.922Z,3.50
2023-03-12T07:39:54.191Z,4.80
2023-03-12T07:42:22.042Z,3.10
2023-03-12T07:44:48.925Z,3.90
2023-03-12T07:47:23.825Z,3.40
2023-03-12T07:49:51.721Z,4.10
2023-03-12T07:52:19.512Z,4.30
2023-03-12T07:54:46.550Z,4.20
2023-03-12T07:57:13.642Z,4.60
2023-03-12T07:59:40.579Z,4.90
2023-03-12T08:02:09.777Z,3.50
2023-03-12T08:04:36.697Z,6.40
2023-03-12T08:07:04.153Z,6.90
2023-03-12T08:09:32.040Z,5.40
2023-03-12T08:11:59.355Z,4.00
2023-03-12T08:14:30.902Z,3.60
2023-03-12T08:16:58.285Z,3.40
2023-03-12T08:19:26.155Z,8.40
2023-03-12T08:21:53.455Z,3.40
2023-03-12T08:24:21.362Z,5.80
2023-03-12T08:26:48.299Z,7.50
2023-03-12T08:29:16.177Z,4.10
2023-03-12T08:31:57.391Z,7.10
2023-03-12T08:34:29.989Z,3.00
2023-03-12T08:36:56.777Z,7.20
2023-03-12T08:39:23.644Z,10.90
2023-03-12T08:41:54.841Z,6.80
2023-03-12T08:44:24.993Z,4.90
2023-03-12T08:46:52.693Z,8.70
2023-03-12T08:49:20.894Z,7.50
2023-03-12T08:51:48.066Z,6.70
2023-03-12T08:54:14.811Z,5.20
2023-03-12T08:56:42.888Z,6.60
2023-03-12T08:59:11.078Z,4.20
2023-03-12T09:01:38.132Z,5.30
2023-03-12T09:04:05.571Z,4.10
2023-03-12T09:06:34.825Z,5.80
2023-03-12T09:09:04.627Z,4.40
2023-03-12T09:11:33.345Z,8.10
2023-03-12T09:16:48.594Z,6.30
2023-03-12T09:19:15.911Z,7.00
2023-03-12T09:21:42.970Z,5.70
2023-03-12T09:24:10.659Z,4.30
2023-03-12T09:26:37.801Z,8.60
2023-03-12T09:29:05.007Z,4.40
2023-03-12T09:31:31.853Z,6.90
2023-03-12T09:33:58.689Z,5.10
2023-03-12T09:36:25.279Z,6.40
2023-03-12T09:38:52.110Z,6.40
2023-03-12T09:41:28.566Z,7.70
2023-03-12T09:44:01.610Z,4.00
2023-03-12T09:46:42.366Z,6.00
2023-03-12T09:49:25.985Z,8.00
2023-03-12T09:51:56.229Z,5.20
2023-03-12T09:54:37.376Z,5.00
2023-03-12T09:57:11.976Z,6.70
2023-03-12T09:59:38.774Z,10.60
2023-03-12T10:02:27.335Z,4.90
2023-03-12T10:05:04.273Z,4.40
2023-03-12T10:07:37.248Z,5.60
2023-03-12T10:10:44.496Z,6.10
2023-03-12T10:13:22.584Z,10.20
2023-03-12T10:16:11.001Z,9.40
2023-03-12T10:18:55.411Z,4.80
2023-03-12T10:21:34.403Z,6.60
2023-03-12T10:24:16.082Z,5.50
2023-03-12T10:26:46.542Z,11.50
2023-03-12T10:29:35.874Z,5.80
2023-03-12T10:32:15.946Z,8.60
2023-03-12T10:34:47.053Z,6.60
2023-03-12T10:37:20.447Z,7.60
2023-03-12T10:39:48.175Z,7.30
2023-03-12T10:42:20.941Z,3.30
2023-03-12T10:44:55.570Z,6.20
2023-03-12T10:47:34.844Z,5.70
2023-03-12T10:50:14.773Z,7.00
2023-03-12T10:52:42.577Z,4.30
2023-03-12T10:55:29.035Z,5.50
2023-03-12T10:57:56.023Z,6.40
2023-03-12T11:00:25.656Z,4.20
2023-03-12T11:03:02.960Z,6.60
2023-03-12T11:05:48.320Z,3.80
2023-03-12T11:08:33.102Z,6.60
2023-03-12T11:11:01.455Z,4.90
2023-03-12T11:13:38.488Z,5.40
2023-03-12T11:16:17.367Z,9.00
2023-03-12T11:19:03.256Z,2.30
2023-03-12T11:21:35.049Z,8.50
2023-03-12T11:24:08.365Z,5.30
2023-03-12T11:26:53.954Z,4.90
2023-03-12T11:29:32.589Z,8.00
2023-03-12T11:32:37.586Z,5.10
2023-03-12T11:35:10.614Z,6.30
2023-03-12T11:38:02.611Z,6.10
2023-03-12T11:40:50.227Z,3.40
2023-03-12T11:43:43.206Z,9.70
2023-03-12T11:46:16.927Z,3.60
2023-03-12T11:48:50.737Z,7.30
2023-03-12T11:51:20.322Z,5.10
2023-03-12T11:53:53.876Z,4.90
2023-03-12T11:59:14.171Z,7.60
2023-03-12T12:02:18.919Z,7.00
2023-03-12T12:05:19.724Z,9.20
2023-03-12T12:08:12.697Z,8.90
2023-03-12T12:11:03.366Z,8.00
2023-03-12T12:13:50.488Z,5.60
2023-03-12T12:17:16.340Z,6.40
2023-03-12T12:19:53.662Z,7.80
2023-03-12T12:22:31.249Z,11.80
2023-03-12T12:25:47.125Z,7.60
2023-03-12T12:28:18.060Z,4.60
2023-03-12T12:31:09.112Z,6.20
2023-03-12T12:33:55.797Z,5.10
2023-03-12T12:36:28.190Z,7.30
2023-03-12T12:39:01.578Z,6.20
2023-03-12T12:41:34.829Z,5.70
2023-03-12T12:44:11.337Z,4.50
2023-03-12T12:46:45.243Z,7.30
2023-03-12T12:49:19.830Z,6.40
2023-03-12T12:51:53.560Z,8.00
2023-03-12T12:54:51.365Z,6.40
2023-03-12T12:57:38.286Z,6.00
2023-03-12T13:00:20.991Z,6.30
2023-03-12T13:02:50.557Z,6.50
2023-03-12T13:05:40.020Z,2.60
2023-03-12T13:08:11.255Z,5.20
2023-03-12T13:10:48.773Z,5.90
2023-03-12T13:13:27.480Z,10.50
2023-03-12T13:16:19.520Z,7.20
2023-03-12T13:19:06.281Z,4.80
2023-03-12T13:21:40.670Z,6.40
2023-03-12T13:24:26.618Z,3.90
2023-03-12T13:26:57.469Z,9.00
2023-03-12T13:29:28.420Z,11.30
2023-03-12T13:31:56.780Z,9.10
2023-03-12T13:34:27.545Z,7.20
2023-03-12T13:37:02.889Z,7.10
2023-03-12T13:39:37.259Z,6.60
2023-03-12T13:42:23.528Z,4.60
2023-03-12T13:44:53.421Z,5.60
2023-03-12T13:47:30.958Z,9.20
2023-03-12T13:50:00.880Z,4.90
2023-03-12T13:52:31.210Z,5.30
2023-03-12T13:55:26.842Z,4.10
2023-03-12T13:57:58.678Z,8.40
2023-03-12T14:00:30.952Z,7.10
2023-03-12T14:03:24.967Z,10.80
2023-03-12T14:06:00.336Z,6.50
2023-03-12T14:08:47.060Z,19.70
2023-03-12T14:11:31.383Z,18.70
2023-03-12T14:14:24.610Z,12.30
2023-03-12T14:16:55.907Z,23.00
2023-03-12T14:19:27.077Z,10.20
2023-03-12T14:21:57.547Z,12.90
2023-03-12T14:24:30.037Z,11.70
2023-03-12T14:26:59.964Z,7.00
2023-03-12T14:29:47.439Z,10.00
2023-03-12T14:32:26.521Z,8.30
2023-03-12T14:35:02.791Z,8.80
2023-03-12T14:37:40.642Z,8.80
2023-03-12T14:40:22.322Z,12.60
2023-03-12T14:42:50.358Z,7.70
2023-03-12T14:45:21.053Z,9.30
2023-03-12T14:47:55.383Z,9.20
2023-03-12T14:50:39.271Z,8.20
2023-03-12T14:55:40.244Z,8.70
2023-03-12T14:58:20.586Z,8.40
2023-03-12T15:01:31.966Z,5.70
2023-03-12T15:04:03.016Z,6.00
2023-03-12T15:06:32.944Z,12.50
2023-03-12T15:09:04.583Z,9.70
2023-03-12T15:11:36.342Z,9.50
2023-03-12T15:14:14.350Z,9.70
2023-03-12T15:16:44.575Z,6.00
2023-03-12T15:19:16.688Z,14.30
2023-03-12T15:21:44.991Z,13.20
2023-03-12T15:24:14.214Z,12.20
2023-03-12T15:26:43.959Z,10.10
2023-03-12T15:29:27.970Z,7.70
2023-03-12T15:31:59.213Z,14.30
2023-03-12T15:34:45.268Z,21.90
2023-03-12T15:37:22.837Z,15.00
2023-03-12T15:39:53.295Z,16.00
2023-03-12T15:42:25.001Z,15.90
2023-03-12T15:45:02.972Z,9.70
2023-03-12T15:47:33.992Z,11.80
2023-03-12T15:50:32.605Z,8.70
2023-03-12T15:53:04.270Z,10.70
2023-03-12T15:55:35.196Z,13.50
2023-03-12T15:58:04.142Z,17.70
2023-03-12T16:00:43.258Z,11.10
2023-03-12T16:03:20.504Z,11.20
2023-03-12T16:05:51.656Z,9.70
2023-03-12T16:08:22.666Z,8.60
2023-03-12T16:10:50.626Z,7.40
2023-03-12T16:13:21.491Z,6.80
2023-03-12T16:15:49.689Z,9.90
2023-03-12T16:18:20.241Z,11.00
2023-03-12T16:20:50.288Z,10.50
2023-03-12T16:23:19.514Z,20.80
2023-03-12T16:25:51.266Z,9.50
2023-03-12T16:28:21.126Z,14.10
2023-03-12T16:30:50.168Z,9.40
2023-03-12T16:33:20.833Z,16.80
2023-03-12T16:35:48.991Z,12.90
2023-03-12T16:38:17.058Z,12.20
2023-03-12T16:40:50.085Z,7.50
2023-03-12T16:43:21.503Z,10.10
2023-03-12T16:45:51.789Z,9.50
2023-03-12T16:48:25.507Z,10.00
2023-03-12T16:50:56.745Z,16.90
2023-03-12T16:53:25.609Z,11.30
2023-03-12T16:55:59.897Z,13.50
2023-03-12T16:58:30.284Z,13.00
2023-03-12T17:00:59.296Z,12.50
2023-03-12T17:03:37.102Z,12.70
2023-03-12T17:06:07.394Z,12.50
2023-03-12T17:08:36.186Z,12.20
2023-03-12T17:11:14.682Z,13.50
2023-03-12T17:13:44.296Z,13.70
2023-03-12T17:16:13.162Z,17.40
2023-03-12T17:18:41.803Z,14.00
2023-03-12T17:21:14.194Z,16.00
2023-03-12T17:23:42.241Z,15.90
2023-03-12T17:26:10.439Z,21.50
2023-03-12T17:28:39.896Z,34.30
2023-03-12T17:31:08.189Z,32.50
2023-03-12T17:33:38.205Z,33.40
2023-03-12T17:36:08.669Z,34.70
2023-03-12T17:38:37.011Z,29.50
2023-03-12T17:41:09.377Z,27.40
2023-03-12T17:43:39.610Z,27.80
2023-03-12T17:46:09.330Z,27.20
2023-03-12T17:48:37.361Z,37.60
2023-03-12T17:51:07.591Z,67.20
2023-03-12T17:53:36.286Z,87.50
2023-03-12T17:56:04.742Z,40.30
2023-03-12T17:58:32.832Z,38.30
2023-03-12T18:01:00.824Z,86.50
2023-03-12T18:03:28.776Z,62.00
2023-03-12T18:05:56.908Z,43.40
2023-03-12T18:08:24.978Z,21.60
2023-03-12T18:10:52.920Z,18.90
2023-03-12T18:13:21.208Z,27.00
2023-03-12T18:15:54.739Z,17.60
2023-03-12T18:18:25.343Z,11.60
2023-03-12T18:20:53.781Z,10.70
2023-03-12T18:23:24.025Z,8.90
2023-03-12T18:25:52.003Z,8.90
2023-03-12T18:28:21.035Z,10.40
2023-03-12T18:30:49.131Z,16.00
2023-03-12T18:33:17.431Z,13.70
2023-03-12T18:35:46.020Z,9.20
2023-03-12T18:38:13.988Z,8.80
2023-03-12T18:40:42.061Z,10.30
2023-03-12T18:43:09.940Z,9.10
2023-03-12T18:45:42.501Z,9.80
2023-03-12T18:48:10.833Z,12.90
2023-03-12T18:50:39.072Z,13.00
2023-03-12T18:53:06.911Z,9.00
2023-03-12T18:55:35.148Z,7.30
2023-03-12T18:58:03.050Z,6.90
2023-03-12T19:00:31.043Z,8.60
2023-03-12T19:02:59.102Z,9.00
2023-03-12T19:05:26.957Z,9.90
2023-03-12T19:07:55.171Z,10.00
2023-03-12T19:10:23.049Z,10.50
2023-03-12T19:12:53.596Z,13.60
2023-03-12T19:15:24.208Z,9.20
2023-03-12T19:17:52.971Z,14.10
2023-03-12T19:20:21.476Z,11.10
2023-03-12T19:22:50.049Z,11.00
2023-03-12T19:25:18.261Z,11.60
2023-03-12T19:27:48.698Z,14.80
2023-03-12T19:30:16.781Z,12.60
2023-03-12T19:32:45.034Z,8.50
2023-03-12T19:35:14.606Z,9.50
2023-03-12T19:37:43.203Z,9.70
2023-03-12T19:40:13.428Z,9.10
2023-03-12T19:42:41.910Z,10.70
2023-03-12T19:45:10.583Z,9.60
2023-03-12T19:47:38.625Z,16.00
2023-03-12T19:50:08.635Z,12.60
2023-03-12T19:52:37.232Z,9.20
2023-03-12T19:55:05.923Z,11.10
2023-03-12T19:57:34.160Z,9.20
2023-03-12T20:00:02.238Z,9.00
2023-03-12T20:02:32.533Z,10.20
2023-03-12T20:05:00.511Z,8.70
2023-03-12T20:07:28.404Z,7.30
2023-03-12T20:09:56.712Z,9.00
2023-03-12T20:12:24.939Z,7.70
2023-03-12T20:14:52.899Z,6.20
2023-03-12T20:17:20.994Z,8.10
2023-03-12T20:19:49.205Z,7.30
2023-03-12T20:22:17.154Z,6.70
2023-03-12T20:24:45.054Z,8.50
2023-03-12T20:27:13.069Z,7.10
2023-03-12T20:29:43.504Z,7.40
2023-03-12T20:32:12.472Z,9.40
2023-03-12T20:34:41.488Z,15.00
2023-03-12T20:37:09.470Z,15.70
2023-03-12T20:39:37.455Z,13.30
2023-03-12T20:42:05.481Z,19.40
2023-03-12T20:44:33.426Z,12.30
2023-03-12T20:47:01.458Z,15.30
2023-03-12T20:49:29.391Z,17.90
2023-03-12T20:51:57.242Z,17.30
2023-03-12T20:54:25.318Z,15.00
2023-03-12T20:56:53.440Z,12.10
2023-03-12T20:59:21.418Z,12.90
2023-03-12T21:01:49.329Z,9.90
2023-03-12T21:04:17.319Z,8.70
2023-03-12T21:06:45.274Z,6.40
2023-03-12T21:09:13.573Z,6.70
2023-03-12T21:11:41.609Z,8.80
2023-03-12T21:14:09.593Z,7.40
2023-03-12T21:16:37.617Z,6.90
2023-03-12T21:19:05.571Z,5.80
2023-03-12T21:21:36.361Z,5.70
2023-03-12T21:24:05.061Z,7.80
2023-03-12T21:26:33.140Z,8.00
2023-03-12T21:29:01.127Z,5.30
2023-03-12T21:31:29.168Z,8.40
2023-03-12T21:33:57.984Z,7.70
2023-03-12T21:36:26.318Z,7.70
2023-03-12T21:38:54.275Z,6.10
2023-03-12T21:41:22.270Z,6.00
2023-03-12T21:43:50.170Z,6.40
2023-03-12T21:46:20.384Z,4.70
2023-03-12T21:48:48.613Z,5.60
2023-03-12T21:51:17.889Z,8.10
2023-03-12T21:53:45.856Z,12.80
2023-03-12T21:56:13.806Z,13.90
2023-03-12T21:58:41.765Z,16.20
2023-03-12T22:01:12.819Z,16.60
2023-03-12T22:03:42.744Z,11.90
2023-03-12T22:06:11.992Z,6.50
2023-03-12T22:08:40.982Z,4.80
2023-03-12T22:11:09.997Z,4.80
2023-03-12T22:13:38.122Z,6.20
2023-03-12T22:16:08.291Z,6.90
2023-03-12T22:18:41.605Z,6.20
2023-03-12T22:21:15.556Z,5.20
2023-03-12T22:23:43.552Z,4.20
2023-03-12T22:26:11.585Z,5.00
2023-03-12T22:28:40.050Z,3.60
2023-03-12T22:31:09.317Z,5.20
2023-03-12T22:33:37.381Z,4.80
2023-03-12T22:36:10.702Z,3.80
2023-03-12T22:38:39.742Z,4.40
2023-03-12T22:41:28.397Z,3.70
2023-03-12T22:44:01.142Z,4.40
2023-03-12T22:46:29.129Z,5.30
2023-03-12T22:48:59.917Z,8.60
2023-03-12T22:51:29.921Z,7.60
2023-03-12T22:53:58.042Z,7.40
2023-03-12T22:56:26.636Z,6.50
2023-03-12T22:58:55.700Z,6.30
2023-03-12T23:01:23.966Z,5.00
2023-03-12T23:03:52.401Z,9.20
2023-03-12T23:06:26.665Z,19.70
2023-03-12T23:08:55.186Z,20.80
2023-03-12T23:11:25.547Z,18.10
2023-03-12T23:13:54.224Z,14.50
2023-03-12T23:16:24.819Z,14.00
2023-03-12T23:18:52.833Z,11.70
2023-03-12T23:21:23.148Z,11.40
2023-03-12T23:23:51.603Z,6.90
2023-03-12T23:26:23.254Z,2.80
2023-03-12T23:28:53.356Z,3.60
2023-03-12T23:31:22.255Z,3.80
2023-03-12T23:33:50.869Z,2.40
2023-03-12T23:36:21.216Z,3.00
2023-03-12T23:38:49.961Z,3.00
2023-03-12T23:41:20.589Z,2.10
2023-03-12T23:43:48.838Z,2.90
2023-03-12T23:46:17.754Z,2.70
2023-03-12T23:48:45.977Z,2.80
2023-03-12T23:51:20.159Z,3.30
2023-03-12T23:53:50.788Z,4.60
2023-03-12T23:56:21.456Z,6.90
2023-03-12T23:58:50.485Z,9.30
